Métars Prochent de la station Meteo-Danaklab-Domdidier

Ci-dessous, Les Metars prochent de la station Meteo-Danaklab-Domdidier

Un METAR (METeorological Aerodrome Report1) est un rapport d'observation (et non de prévision) météorologique pour l'aviation. Ce code international a été développé par les membres de l'Organisation de l'aviation civile internationale et est approuvé par l'Organisation météorologique mondiale. Les données de base sont communes à tous les pays mais certaines sections du code sont sujettes à des variantes locales.

Les messages METAR sont mis à jour régulièrement, souvent entre 30 minutes à 60 minutes pendant les heures d'ouverture du terrain, selon son équipement et l'éventualité d'un changement important du temps observé.


LSMP - Payerne (mil/Aut, Switzerland
Distance de la station: NNO 85km
Mise à jour: 21/11/2018 15:50
faible pluie, Showers, nuageux
faible pluie, Showers, nuageux
 Wind from variable
Vent: variable 2 km/h
Température: 3°C
Point de rosée: 1°C
Humidité: 87%
Baromètre: 1014 hPa
Récapitulatifs: faible pluie, Showers
Clouds: nuageux
Visibility: 5 km
Cloud details: nuageux 1524 m
2018/11/21 14:50 LSMP 211450Z VRB01KT 5000 -SHRA BKN050 03/01 Q1014 RMK WHT
LSZB - Bern/Belp, Switzerland
Distance de la station: NNE 98km
Mise à jour: 21/11/2018 15:50
faible pluie, nuageux
faible pluie, nuageux
 Wind from S
Vent: S 4 km/h
Température: 4°C
Point de rosée: 0°C
Humidité: 75%
Baromètre: 1014 hPa
Récapitulatifs: faible pluie
Clouds: nuageux
Visibility: 7 km
Cloud details: Quelques Nuages 1189 m
nuageux 1463 m
2018/11/21 14:50 LSZB 211450Z 19002KT 7000 -RA FEW039 BKN048 04/00 Q1014 NOSIG
 
LSGG - Geneva/Cointrin, Switzerland
Distance de la station: ONO 81km
Mise à jour: 21/11/2018 15:50
Broulliard, nuageux
Broulliard, nuageux
 Wind from SO
Vent: SO 2 km/h
Température: 5°C
Point de rosée: 4°C
Humidité: 93%
Baromètre: 1014 hPa
Récapitulatifs: Broulliard
Clouds: nuageux
Visibility: 4 km
Cloud details: partiellement nuageux 213 m
partiellement nuageux 305 m
nuageux 1524 m
2018/11/21 14:50 LSGG 211450Z 23001KT 4200 BR SCT007 SCT010 BKN050 05/04 Q1014 NOSIG
LFLP - Annecy/Meythet, France
Distance de la station: OSO 83km
Mise à jour: 21/11/2018 15:30
Faible bruine, Couvert
Faible bruine, Couvert
 Wind from variable
Vent: variable 6 km/h
Température: 6°C
Point de rosée: 4°C
Humidité: 87%
Baromètre: 1013 hPa
Récapitulatifs: Light Drizzle
Clouds: Couvert
Visibility: 7 km
Cloud details: Couvert 1250 m
2018/11/21 14:30 LFLP 211430Z AUTO VRB03KT 7000 -DZ OVC041 06/04 Q1013 TEMPO 4000 -RADZ BKN012
 
LSGC - Les Eplatures, Switzerland
Distance de la station: NNO 115km
Mise à jour: 21/11/2018 15:50
faible pluie, nuageux
faible pluie, nuageux
 Wind from S
Vent: S 6 km/h
Température: 6°C
Point de rosée: 2°C
Humidité: 76%
Baromètre: 1012 hPa
Récapitulatifs: faible pluie
Clouds: nuageux
Visibility: 10 km
Cloud details: Quelques Nuages 1097 m
nuageux 2134 m
2018/11/21 14:50 LSGC 211450Z 19003KT 9999 -RA FEW036 BKN070 06/02 Q1012
LSGS - Sion (mil/Civ/Au, Switzerland
Distance de la station: NE 22km
Mise à jour: 21/11/2018 15:50
Couvert
Couvert
 Wind from SO
Vent: SO 6 km/h
Température: 5°C
Point de rosée: 1°C
Humidité: 76%
Baromètre: 1014 hPa
Clouds: Couvert
Visibility: 9 km
Cloud details: nuageux 1981 m
Couvert 3353 m
2018/11/21 14:50 LSGS 211450Z 22003KT 160V270 9000 BKN065 OVC110 05/01 Q1014
 
LSMS - Sion (mil), Switzerland
Distance de la station: NE 22km
Mise à jour: 21/11/2018 15:50
Couvert
Couvert
 Wind from SO
Vent: SO 6 km/h
Température: 5°C
Point de rosée: 1°C
Humidité: 76%
Baromètre: 1014 hPa
Clouds: Couvert
Visibility: 9 km
Cloud details: nuageux 1981 m
Couvert 3353 m
2018/11/21 14:50 LSMS 211450Z 22003KT 160V270 9000 BKN065 OVC110 05/01 Q1014 RMK BLU
LSMM - Meiringen, Switzerland
Distance de la station: NE 107km
Mise à jour: 21/11/2018 15:20
partiellement nuageux
partiellement nuageux
 Wind from calm
Vent: calme
Température: 4°C
Point de rosée: 1°C
Humidité: 81%
Baromètre: 1013 hPa
Clouds: partiellement nuageux
Visibility: 10 km
2018/11/21 14:20 LSMM 211420Z 00000KT 9999 NSC 04/01 Q1013 RMK BLU
 
LIMW - Aosta Arpt, Italy
Distance de la station: SSE 42km
Mise à jour: 21/11/2018 15:50
Couvert
Couvert
 Wind from O
Vent: O 9 km/h
Température: 6°C
Wind Chill: 4°C
Point de rosée: 1°C
Humidité: 71%
Baromètre: 1016 hPa
Clouds: Couvert
Visibility: 10 km
Cloud details: Quelques Nuages 1676 m
Couvert 2073 m
2018/11/21 14:50 LIMW 211450Z AUTO 26005KT 9999 FEW055/// OVC068/// 06/01 Q1016
LIMH - Pian Rosa (mtn T, Italy
Distance de la station: ESE 46km
Mise à jour: 21/11/2018 14:55
Faible neige, Freezing, Brouillard ou brume
Faible neige, Freezing, Brouillard ou brume
 Wind from variable
Vent: variable 0 km/h
Température: -5°C
Point de rosée: -8°C
Humidité: 80%
Baromètre: 1010 hPa
Récapitulatifs: Faible neige, Freezing, Brouillard ou brume
Visibility: 0 km
2018/11/21 13:55 LIMH 211355Z /////KT 0400 -SN FZFG VV/// M05/M08 Q1010 RMK MON INVIS VAL INVIS VIS MIN 0400
 
LFLB - Chambery/Aix Bai, France
Distance de la station: OSO 109km
Mise à jour: 21/11/2018 15:30
Couvert
Couvert
 Wind from variable
Vent: variable 4 km/h
Température: 6°C
Point de rosée: 5°C
Humidité: 93%
Baromètre: 1014 hPa
Clouds: Couvert
Visibility: 6 km
Cloud details: partiellement nuageux 366 m
Couvert 1646 m
2018/11/21 14:30 LFLB 211430Z AUTO VRB02KT 6000 SCT012 OVC054 06/05 Q1014 NOSIG
LIMF - Torino/Caselle, Italy
Distance de la station: SSE 103km
Mise à jour: 21/11/2018 15:50
Pluie, Broulliard, nuageux
Pluie, Broulliard, nuageux
 Wind from OSO
Vent: OSO 4 km/h
Température: 5°C
Point de rosée: 5°C
Humidité: 100%
Baromètre: 1014 hPa
Récapitulatifs: Pluie, Broulliard
Clouds: nuageux
Visibility: 5 km
Cloud details: nuageux 457 m
nuageux 1524 m
2018/11/21 14:50 LIMF 211450Z 24002KT 4500 RA BR BKN015 BKN050 05/05 Q1014
 
LIMA - Aeritalia, Italy
Distance de la station: SSE 116km
Mise à jour: 21/11/2018 14:50
Pluie, nuageux
Pluie, nuageux
 Wind from SSO
Vent: SSO 11 km/h
Température: 5°C
Wind Chill: 2°C
Point de rosée: 4°C
Humidité: 93%
Baromètre: 1015 hPa
Récapitulatifs: Pluie
Clouds: nuageux
Visibility: 7 km
Cloud details: nuageux 1219 m
2018/11/21 13:50 LIMA 211350Z 20006KT 7000 RA BKN040 05/04 Q1015